Caldas1b

Aeroporti (rapporto METAR)


LPPT - Lisboa
Distanza dalla stazione: SSE 78km
Dati ricevuti: 02/03/2024 11:00
Pioviggine, Pioggia, Nuvoloso
Pioviggine, Pioggia, Nuvoloso
 Vento da OSO
Vento: OSO 24 km/h
Temperatura: 14°C
P.to Rugiada: 11°C
Umidità: 82%
Barometro: 1013 hPa
Summary: Pioviggine, Pioggia
Nuvole: Nuvoloso
VisibilitÓ: 9 km
NuvolositÓ: Parz. nuvoloso 610 m
Nuvoloso 762 m
2024/03/02 11:00 LPPT 021100Z 25013KT 9000 -SHRA SCT020 BKN025 14/11 Q1013
LPPR - Porto
Distanza dalla stazione: NO 205km
Dati ricevuti: 02/03/2024 11:00
Pioviggine, Nubi sparse
Pioviggine, Nubi sparse
 Vento da O
Vento: O 22 km/h, raffica: 44 km/h
Temperatura: 13°C
P.to Rugiada: 10°C
Umidità: 82%
Barometro: 1003 hPa
Summary: Pioviggine
Nuvole: Nubi sparse
VisibilitÓ: 6 km
NuvolositÓ: Nubi sparse 244 m
Nuvoloso 366 m
Nubi sparse 610 m
2024/03/02 11:00 LPPR 021100Z 27012G24KT 220V320 6000 SHRA FEW008 BKN012 FEW020CB 13/10 Q1003
 
LPFR - Faro
Distanza dalla stazione: SE 286km
Dati ricevuti: 02/03/2024 11:00
Nubi sparse
Nubi sparse
 Vento da O
Vento: O 22 km/h
Temperatura: 16°C
P.to Rugiada: 11°C
Umidità: 72%
Barometro: 1016 hPa
Nuvole: Nubi sparse
VisibilitÓ: 10 km
NuvolositÓ: Nubi sparse 457 m
2024/03/02 11:00 LPFR 021100Z 26012KT 9999 FEW015 16/11 Q1016
LPBJ - Beja
Distanza dalla stazione: ESE 190km
Dati ricevuti: 02/03/2024 11:00
Parz. nuvoloso
Parz. nuvoloso
 Vento da O
Vento: O 19 km/h
Temperatura: 13°C
P.to Rugiada: 12°C
Umidità: 94%
Barometro: 1014 hPa
Nuvole: Parz. nuvoloso
VisibilitÓ: 10 km
NuvolositÓ: Nubi sparse 488 m
Parz. nuvoloso 1067 m
2024/03/02 11:00 LPBJ 021100Z 28010KT 9999 FEW016 SCT035 13/12 Q1014 RESHRA
 
LPMA - Funchal
Distanza dalla stazione: SSO 1025km
Dati ricevuti: 02/03/2024 11:00
Nubi sparse
Nubi sparse
 Vento da N
Vento: N 22 km/h
Temperatura: 18°C
P.to Rugiada: 10°C
Umidità: 60%
Barometro: 1025 hPa
Nuvole: Nubi sparse
VisibilitÓ: 10 km
NuvolositÓ: Parz. nuvoloso 457 m
Nubi sparse 488 m
2024/03/02 11:00 LPMA 021100Z 36012KT 310V050 9999 SCT015 FEW016CB 18/10 Q1025
LPPD - Ponta Delgada
Distanza dalla stazione: O 1450km
Dati ricevuti: 02/03/2024 11:00
Nuvoloso
Nuvoloso
 Vento da NNO
Vento: NNO 15 km/h
Temperatura: 15°C
P.to Rugiada: 7°C
Umidità: 59%
Barometro: 1033 hPa
Nuvole: Nuvoloso
VisibilitÓ: 10 km
NuvolositÓ: Nubi sparse 671 m
Nuvoloso 1006 m
2024/03/02 11:00 LPPD 021100Z 34008KT 310V010 9999 FEW022 BKN033 15/07 Q1033
 
LPCS - Cascais
Distanza dalla stazione: SSO 77km
Dati ricevuti: 02/03/2024 11:00
Nubi sparse
Nubi sparse
 Vento da OSO
Vento: OSO 28 km/h
Temperatura: 14°C
P.to Rugiada: 11°C
Umidità: 82%
Barometro: 1013 hPa
Nuvole: Nubi sparse
VisibilitÓ: 10 km
NuvolositÓ: Nubi sparse 640 m
2024/03/02 11:00 LPCS 021100Z 25015KT 230V290 9999 FEW021 14/11 Q1013
LPMR - Monte Real
Distanza dalla stazione: N 55km
Dati ricevuti: 02/03/2024 11:00
Nuvoloso
Nuvoloso
 Vento da O
Vento: O 26 km/h, raffica: 44 km/h
Temperatura: 13°C
P.to Rugiada: 12°C
Umidità: 94%
Barometro: 1009 hPa
Nuvole: Nuvoloso
VisibilitÓ: 10 km
NuvolositÓ: Nuvoloso 488 m
Nuvoloso 914 m
2024/03/02 11:00 LPMR 021100Z 26014G24KT 220V290 9999 BKN016 BKN030 13/12 Q1009

Phoenix Radar Flight Tracking

Map courtesy of flightradar24.com